Celebrity Century — 9HJI9 — position and weather

sailwx.info

Track history (hours):
 
Tides and Currents Weather Stations Pressure Air Temp Water Temp Dewpoint Dewpoint Depression Visibility Wind Speed Wind Dir Waves Ship Positions

Celebrity Century

Last reported at 2014-Jul-23 07:33 UTC. Time now 2014-Jul-23 15:29 UTC.
Position N 58°20' W 136°03'.

Length 252 m; draft 8.1 m.

Type: Ship. MMSI: 249054000.

Date/timePositionNaut miles runAvg speedWind from/ knotsBaromVisibWave heightAir tempDewpointWater temp
2014-Jul-23 07:33N 58°20' W 136°03'1717.0
2014-Jul-23 06:33N 58°14' W 135°33'7 1.1
2014-Jul-23 00:12N 58°08' W 135°28'27712.8
2014-Jul-22 02:32N 54°13' W 131°03'21117.5
2014-Jul-21 14:29N 51°11' W 128°09'1717.8
2014-Jul-21 13:33N 51°00' W 127°48'1716.9
2014-Jul-21 12:33N 50°50' W 127°27'1919.1
2014-Jul-21 11:33N 50°42' W 126°60'1917.5
2014-Jul-21 10:28N 50°31' W 126°36'5017.1
2014-Jul-21 07:33N 50°13' W 125°23'1411.5
2014-Jul-21 06:19N 50°00' W 125°13'1013.3
2014-Jul-21 05:33N 49°53' W 125°02'1615.2
2014-Jul-21 04:30N 49°42' W 124°44'1515.2
2014-Jul-21 03:32N 49°30' W 124°29'1515.2
2014-Jul-21 02:34N 49°23' W 124°10'1615.7
2014-Jul-21 01:34N 49°19' W 123°47'1515.3
2014-Jul-21 00:34N 49°16' W 123°24'1111.3
2014-Jul-20 23:33N 49°18' W 123°06'1 0.5
2014-Jul-20 22:33N 49°17' W 123°06'0 0.0
2014-Jul-20 21:32N 49°17' W 123°06'0 0.0
2014-Jul-20 20:32N 49°17' W 123°06'0 0.0
2014-Jul-20 19:31N 49°17' W 123°06'0 0.0
2014-Jul-20 18:31N 49°17' W 123°06'0 0.0
2014-Jul-20 17:33N 49°17' W 123°06'0 0.0
2014-Jul-20 16:33N 49°17' W 123°06'0 0.0
2014-Jul-20 15:33N 49°17' W 123°06'0 0.0
2014-Jul-20 14:32N 49°17' W 123°06'0 0.2
2014-Jul-20 13:33N 49°17' W 123°06'10 9.6
2014-Jul-20 12:33N 49°17' W 123°21'1211.9
2014-Jul-20 11:34N 49°15' W 123°39'1615.6
2014-Jul-20 10:33N 49°21' W 124°01'1615.8
2014-Jul-20 09:33N 49°27' W 124°24'1615.6
2014-Jul-20 08:33N 49°38' W 124°41'1615.7
2014-Jul-20 07:33N 49°50' W 124°57'1515.4
2014-Jul-20 06:32N 50°01' W 125°13'5814.5
2014-Jul-20 02:31N 50°30' W 126°32'1413.5
2014-Jul-20 01:30N 50°39' W 126°49'1515.6
2014-Jul-20 00:33N 50°45' W 127°10'1717.1
2014-Jul-19 23:33N 50°52' W 127°34'1616.4
2014-Jul-19 22:33N 51°02' W 127°55'1716.4
2014-Jul-19 21:31N 51°12' W 128°17'19817.5
2014-Jul-19 10:12N 54°03' W 131°01'1218.3
2014-Jul-19 09:34N 54°15' W 131°03'1111.5
2014-Jul-19 08:33N 54°25' W 131°10'140 8.0
2014-Jul-18 15:00N 56°18' W 133°36'121 4.2 050 / 151006.0 2.2 11.011.012.0
2014-Jul-17 10:18N 58°09' W 135°06'1215.1
2014-Jul-17 09:32N 58°13' W 135°27'1515.9
2014-Jul-17 08:33N 58°19' W 135°54'12 0.5
2014-Jul-16 08:16N 58°18' W 136°16'1013.8
2014-Jul-16 07:33N 58°19' W 135°58'1212.2
2014-Jul-16 06:33N 58°15' W 135°36'9 1.4
2014-Jul-16 00:19N 58°08' W 135°28'1 0.3
2014-Jul-15 22:16N 58°08' W 135°28'29015.0
2014-Jul-15 03:00N 54°00' W 131°00'13417.4 270 / 221020.0 0.3 14.014.013.0
2014-Jul-14 19:15N 52°04' W 129°08'1318.3
2014-Jul-14 18:33N 51°57' W 128°50'1817.7
2014-Jul-14 17:33N 51°43' W 128°34'2318.1
2014-Jul-14 16:16N 51°20' W 128°28'1818.8
2014-Jul-14 15:18N 51°09' W 128°05'1419.1
2014-Jul-14 14:33N 50°59' W 127°48'1818.2
2014-Jul-14 13:34N 50°49' W 127°24'1919.2
2014-Jul-14 12:34N 50°42' W 126°56'1816.2
2014-Jul-14 11:27N 50°30' W 126°33'1718.0
2014-Jul-14 10:29N 50°28' W 126°06'1415.1
2014-Jul-14 09:33N 50°23' W 125°46'1514.6
2014-Jul-14 08:33N 50°17' W 125°25'1514.3
2014-Jul-14 07:28N 50°03' W 125°15'1313.0
2014-Jul-14 06:29N 49°53' W 125°02'1212.9
2014-Jul-14 05:33N 49°45' W 124°48'1312.9
2014-Jul-14 04:33N 49°35' W 124°36'1312.6
2014-Jul-14 03:33N 49°27' W 124°22'1313.1
2014-Jul-14 02:33N 49°22' W 124°03'1312.8
2014-Jul-14 01:33N 49°18' W 123°45'1312.9
2014-Jul-14 00:33N 49°15' W 123°25'1211.7
2014-Jul-13 23:33N 49°19' W 123°08'2 1.7
2014-Jul-13 22:31N 49°17' W 123°06'0 0.0
2014-Jul-13 21:33N 49°17' W 123°06'0 0.0
2014-Jul-13 20:33N 49°17' W 123°06'0 0.0
2014-Jul-13 19:33N 49°17' W 123°06'0 0.0
2014-Jul-13 18:32N 49°17' W 123°06'0 0.0
2014-Jul-13 17:32N 49°17' W 123°06'0 0.0
2014-Jul-13 16:31N 49°17' W 123°06'0 0.0
2014-Jul-13 15:31N 49°17' W 123°06'0 0.0
2014-Jul-13 14:33N 49°17' W 123°06'0 0.2
2014-Jul-13 13:34N 49°17' W 123°06'1312.8
2014-Jul-13 12:33N 49°18' W 123°26'2020.1
2014-Jul-13 11:33N 49°21' W 123°56'2020.0
2014-Jul-13 10:33N 49°28' W 124°25'2019.8
2014-Jul-13 09:33N 49°42' W 124°47'2019.8
2014-Jul-13 08:33N 49°56' W 125°07'  
Track history (hours):
 
Tides and Currents Weather Stations Pressure Air Temp Water Temp Dewpoint Dewpoint Depression Visibility Wind Speed Wind Dir Waves Ship Positions

Celebrity Century

Last reported at 2014-Jul-23 07:33 UTC. Time now 2014-Jul-23 15:29 UTC.
Position N 58°20' W 136°03'.

Length 252 m; draft 8.1 m.

Type: Ship. MMSI: 249054000.

Date/timePositionNaut miles runAvg speedWind from/ knotsBaromVisibWave heightAir tempDewpointWater temp
2014-Jul-23 07:33N 58°20' W 136°03'1717.0
2014-Jul-23 06:33N 58°14' W 135°33'7 1.1
2014-Jul-23 00:12N 58°08' W 135°28'27712.8
2014-Jul-22 02:32N 54°13' W 131°03'21117.5
2014-Jul-21 14:29N 51°11' W 128°09'1717.8
2014-Jul-21 13:33N 51°00' W 127°48'1716.9
2014-Jul-21 12:33N 50°50' W 127°27'1919.1
2014-Jul-21 11:33N 50°42' W 126°60'1917.5
2014-Jul-21 10:28N 50°31' W 126°36'5017.1
2014-Jul-21 07:33N 50°13' W 125°23'1411.5
2014-Jul-21 06:19N 50°00' W 125°13'1013.3
2014-Jul-21 05:33N 49°53' W 125°02'1615.2
2014-Jul-21 04:30N 49°42' W 124°44'1515.2
2014-Jul-21 03:32N 49°30' W 124°29'1515.2
2014-Jul-21 02:34N 49°23' W 124°10'1615.7
2014-Jul-21 01:34N 49°19' W 123°47'1515.3
2014-Jul-21 00:34N 49°16' W 123°24'1111.3
2014-Jul-20 23:33N 49°18' W 123°06'1 0.5
2014-Jul-20 22:33N 49°17' W 123°06'0 0.0
2014-Jul-20 21:32N 49°17' W 123°06'0 0.0
2014-Jul-20 20:32N 49°17' W 123°06'0 0.0
2014-Jul-20 19:31N 49°17' W 123°06'0 0.0
2014-Jul-20 18:31N 49°17' W 123°06'0 0.0
2014-Jul-20 17:33N 49°17' W 123°06'0 0.0
2014-Jul-20 16:33N 49°17' W 123°06'0 0.0
2014-Jul-20 15:33N 49°17' W 123°06'0 0.0
2014-Jul-20 14:32N 49°17' W 123°06'0 0.2
2014-Jul-20 13:33N 49°17' W 123°06'10 9.6
2014-Jul-20 12:33N 49°17' W 123°21'1211.9
2014-Jul-20 11:34N 49°15' W 123°39'1615.6
2014-Jul-20 10:33N 49°21' W 124°01'1615.8
2014-Jul-20 09:33N 49°27' W 124°24'1615.6
2014-Jul-20 08:33N 49°38' W 124°41'1615.7
2014-Jul-20 07:33N 49°50' W 124°57'1515.4
2014-Jul-20 06:32N 50°01' W 125°13'5814.5
2014-Jul-20 02:31N 50°30' W 126°32'1413.5
2014-Jul-20 01:30N 50°39' W 126°49'1515.6
2014-Jul-20 00:33N 50°45' W 127°10'1717.1
2014-Jul-19 23:33N 50°52' W 127°34'1616.4
2014-Jul-19 22:33N 51°02' W 127°55'1716.4
2014-Jul-19 21:31N 51°12' W 128°17'19817.5
2014-Jul-19 10:12N 54°03' W 131°01'1218.3
2014-Jul-19 09:34N 54°15' W 131°03'1111.5
2014-Jul-19 08:33N 54°25' W 131°10'140 8.0
2014-Jul-18 15:00N 56°18' W 133°36'121 4.2 050 / 151006.0 2.2 11.011.012.0
2014-Jul-17 10:18N 58°09' W 135°06'1215.1
2014-Jul-17 09:32N 58°13' W 135°27'1515.9
2014-Jul-17 08:33N 58°19' W 135°54'12 0.5
2014-Jul-16 08:16N 58°18' W 136°16'1013.8
2014-Jul-16 07:33N 58°19' W 135°58'1212.2
2014-Jul-16 06:33N 58°15' W 135°36'9 1.4
2014-Jul-16 00:19N 58°08' W 135°28'1 0.3
2014-Jul-15 22:16N 58°08' W 135°28'29015.0
2014-Jul-15 03:00N 54°00' W 131°00'13417.4 270 / 221020.0 0.3 14.014.013.0
2014-Jul-14 19:15N 52°04' W 129°08'1318.3
2014-Jul-14 18:33N 51°57' W 128°50'1817.7
2014-Jul-14 17:33N 51°43' W 128°34'2318.1
2014-Jul-14 16:16N 51°20' W 128°28'1818.8
2014-Jul-14 15:18N 51°09' W 128°05'1419.1
2014-Jul-14 14:33N 50°59' W 127°48'1818.2
2014-Jul-14 13:34N 50°49' W 127°24'1919.2
2014-Jul-14 12:34N 50°42' W 126°56'1816.2
2014-Jul-14 11:27N 50°30' W 126°33'1718.0
2014-Jul-14 10:29N 50°28' W 126°06'1415.1
2014-Jul-14 09:33N 50°23' W 125°46'1514.6
2014-Jul-14 08:33N 50°17' W 125°25'1514.3
2014-Jul-14 07:28N 50°03' W 125°15'1313.0
2014-Jul-14 06:29N 49°53' W 125°02'1212.9
2014-Jul-14 05:33N 49°45' W 124°48'1312.9
2014-Jul-14 04:33N 49°35' W 124°36'1312.6
2014-Jul-14 03:33N 49°27' W 124°22'1313.1
2014-Jul-14 02:33N 49°22' W 124°03'1312.8
2014-Jul-14 01:33N 49°18' W 123°45'1312.9
2014-Jul-14 00:33N 49°15' W 123°25'1211.7
2014-Jul-13 23:33N 49°19' W 123°08'2 1.7
2014-Jul-13 22:31N 49°17' W 123°06'0 0.0
2014-Jul-13 21:33N 49°17' W 123°06'0 0.0
2014-Jul-13 20:33N 49°17' W 123°06'0 0.0
2014-Jul-13 19:33N 49°17' W 123°06'0 0.0
2014-Jul-13 18:32N 49°17' W 123°06'0 0.0
2014-Jul-13 17:32N 49°17' W 123°06'0 0.0
2014-Jul-13 16:31N 49°17' W 123°06'0 0.0
2014-Jul-13 15:31N 49°17' W 123°06'0 0.0
2014-Jul-13 14:33N 49°17' W 123°06'0 0.2
2014-Jul-13 13:34N 49°17' W 123°06'1312.8
2014-Jul-13 12:33N 49°18' W 123°26'2020.1
2014-Jul-13 11:33N 49°21' W 123°56'2020.0
2014-Jul-13 10:33N 49°28' W 124°25'2019.8
2014-Jul-13 09:33N 49°42' W 124°47'2019.8
2014-Jul-13 08:33N 49°56' W 125°07'  

Dump ship's entire track history